Time;durP1;ratioP1;P1;durP2;ratioP2;P2;SDS_P1;SDS_P2;PMS_P1;PMS_P2;Temp;Humidity;BMP_temperature;BMP_pressure;BME280_temperature;BME280_humidity;BME280_pressure;Samples;Min_cycle;Max_cycle;Signal;HPM_P1;HPM_P2
2022/03/04 00:01:33;;;;;;;0.50;0.47;;;1.70;99.90;;;;;;5091935;28;20617;-77
2022/03/04 00:03:59;;;;;;;14.07;13.57;;;1.70;99.90;;;;;;5092148;28;20263;-78
2022/03/04 00:06:28;;;;;;;0.50;0.40;;;1.70;99.90;;;;;;5091432;28;20194;-78
2022/03/04 00:08:54;;;;;;;0.50;0.40;;;1.60;99.90;;;;;;5091065;28;20189;-78
2022/03/04 00:11:21;;;;;;;0.50;0.40;;;1.60;99.90;;;;;;5091450;28;20215;-77
2022/03/04 00:13:48;;;;;;;0.50;0.50;;;1.50;99.90;;;;;;5091900;28;20192;-77
2022/03/04 00:16:15;;;;;;;0.50;0.50;;;1.40;99.90;;;;;;5090931;28;20205;-78
2022/03/04 00:18:41;;;;;;;0.50;0.40;;;1.40;99.90;;;;;;5090598;28;20196;-77
2022/03/04 00:21:09;;;;;;;0.50;0.50;;;1.40;99.90;;;;;;5090414;28;20264;-77
2022/03/04 00:23:37;;;;;;;0.77;0.77;;;1.40;99.90;;;;;;5091818;28;20243;-78
2022/03/04 00:26:05;;;;;;;0.50;0.40;;;1.40;99.90;;;;;;5091674;28;20207;-77
2022/03/04 00:28:31;;;;;;;0.50;0.40;;;1.40;99.90;;;;;;5091074;28;20208;-77
2022/03/04 00:30:58;;;;;;;0.50;0.50;;;1.40;99.90;;;;;;5091548;28;20223;-77
2022/03/04 00:33:25;;;;;;;1.85;1.63;;;1.50;99.90;;;;;;5095631;28;20215;-76
2022/03/04 00:35:54;;;;;;;0.65;0.65;;;1.50;99.90;;;;;;5095729;28;20200;-76
2022/03/04 00:38:21;;;;;;;0.90;0.70;;;1.50;99.90;;;;;;5095507;28;20283;-77
2022/03/04 00:40:49;;;;;;;0.50;0.50;;;1.50;99.90;;;;;;5095195;28;20201;-77
2022/03/04 00:43:17;;;;;;;0.50;0.40;;;1.50;99.90;;;;;;5095427;28;20199;-77
2022/03/04 00:45:43;;;;;;;0.50;0.50;;;1.50;99.90;;;;;;5095945;28;20200;-77
2022/03/04 00:48:10;;;;;;;0.50;0.40;;;1.50;99.90;;;;;;5095131;28;20596;-77
2022/03/04 00:50:37;;;;;;;2.30;2.20;;;1.40;99.90;;;;;;5094591;28;20195;-78
2022/03/04 00:53:03;;;;;;;0.50;0.40;;;1.40;99.90;;;;;;5095289;28;20223;-76
2022/03/04 00:55:30;;;;;;;0.50;0.47;;;1.30;99.90;;;;;;5094930;28;20657;-76
2022/03/04 00:57:58;;;;;;;0.50;0.40;;;1.20;99.90;;;;;;5095518;28;20198;-77
2022/03/04 01:00:25;;;;;;;0.50;0.50;;;1.20;99.90;;;;;;5094399;28;20729;-77
2022/03/04 01:02:52;;;;;;;0.50;0.40;;;1.20;99.90;;;;;;5095194;28;20211;-77
2022/03/04 01:05:18;;;;;;;0.50;0.40;;;1.10;99.90;;;;;;5095590;28;20202;-77
2022/03/04 01:07:45;;;;;;;0.55;0.55;;;1.10;99.90;;;;;;5095180;28;20197;-77
2022/03/04 01:10:12;;;;;;;0.60;0.40;;;1.10;99.90;;;;;;5095155;28;20225;-77
2022/03/04 01:12:39;;;;;;;3.08;2.97;;;1.20;99.90;;;;;;5094777;28;20706;-77
2022/03/04 01:15:08;;;;;;;0.50;0.40;;;1.20;99.90;;;;;;5094094;28;20251;-77
2022/03/04 01:17:35;;;;;;;0.50;0.50;;;1.10;99.90;;;;;;5095179;28;20609;-77
2022/03/04 01:20:02;;;;;;;0.50;0.45;;;1.00;99.90;;;;;;5093935;28;20295;-77
2022/03/04 01:22:29;;;;;;;0.50;0.40;;;0.90;99.90;;;;;;5094552;28;20206;-76
2022/03/04 01:24:55;;;;;;;0.50;0.50;;;0.80;99.90;;;;;;5094638;28;20189;-76
2022/03/04 01:27:22;;;;;;;0.50;0.40;;;0.70;99.90;;;;;;5094683;28;20720;-77
2022/03/04 01:29:49;;;;;;;0.50;0.45;;;0.70;99.90;;;;;;5093956;28;20240;-77
2022/03/04 01:32:17;;;;;;;0.50;0.50;;;0.60;99.90;;;;;;5094402;28;20868;-77
2022/03/04 01:34:44;;;;;;;0.50;0.45;;;0.50;99.90;;;;;;5094600;28;20203;-72
2022/03/04 01:37:11;;;;;;;0.50;0.40;;;0.50;99.90;;;;;;5094340;28;20198;-77
2022/03/04 01:39:38;;;;;;;2.10;1.80;;;0.40;99.90;;;;;;5093521;28;20190;-77
2022/03/04 01:42:05;;;;;;;1.20;1.15;;;0.40;99.90;;;;;;5094211;28;20260;-78
2022/03/04 01:44:32;;;;;;;0.50;0.40;;;0.50;99.90;;;;;;5094571;28;20197;-77
2022/03/04 01:46:59;;;;;;;0.50;0.40;;;0.50;99.90;;;;;;5094458;28;20200;-77
2022/03/04 01:49:27;;;;;;;0.50;0.50;;;0.50;99.90;;;;;;5092918;28;20692;-77
2022/03/04 01:51:53;;;;;;;0.50;0.50;;;0.40;99.90;;;;;;5094097;28;20289;-77
2022/03/04 01:54:20;;;;;;;2.40;2.25;;;0.40;99.90;;;;;;5094284;28;20206;-77
2022/03/04 01:56:47;;;;;;;0.50;0.50;;;0.40;99.90;;;;;;5094404;28;20201;-75
2022/03/04 01:59:13;;;;;;;0.50;0.40;;;0.40;99.90;;;;;;5093190;28;20809;-77
2022/03/04 02:01:40;;;;;;;3.10;1.58;;;0.40;99.90;;;;;;5093823;28;20621;-74
2022/03/04 02:04:07;;;;;;;0.50;0.50;;;0.30;99.90;;;;;;5093879;28;20285;-76
2022/03/04 02:06:35;;;;;;;0.50;0.50;;;0.30;99.90;;;;;;5093704;28;20200;-77
2022/03/04 02:09:03;;;;;;;0.50;0.50;;;0.20;99.90;;;;;;5093042;28;20202;-77
2022/03/04 02:11:30;;;;;;;0.50;0.50;;;0.10;99.90;;;;;;5093808;28;20216;-77
2022/03/04 02:13:56;;;;;;;0.50;0.40;;;0.00;99.90;;;;;;5093550;28;20216;-78
2022/03/04 02:16:27;;;;;;;0.50;0.40;;;0.00;99.90;;;;;;5091646;28;20198;-77
2022/03/04 02:18:54;;;;;;;0.50;0.40;;;0.00;99.90;;;;;;5093355;28;20177;-77
2022/03/04 02:21:23;;;;;;;0.50;0.50;;;0.00;99.90;;;;;;5093368;28;20217;-77
2022/03/04 02:23:51;;;;;;;0.50;0.50;;;0.00;99.90;;;;;;5093513;28;20558;-77
2022/03/04 02:26:18;;;;;;;1.77;1.73;;;0.00;99.90;;;;;;5093328;28;20264;-77
2022/03/04 02:28:45;;;;;;;0.50;0.50;;;0.00;99.90;;;;;;5093414;28;20204;-74
2022/03/04 02:31:14;;;;;;;0.50;0.50;;;0.00;99.90;;;;;;5093395;28;20295;-76
2022/03/04 02:33:41;;;;;;;0.50;0.50;;;0.00;99.90;;;;;;5093524;28;20704;-77
2022/03/04 02:36:08;;;;;;;2.88;2.67;;;0.00;99.90;;;;;;5093026;28;20200;-77
2022/03/04 02:38:35;;;;;;;0.50;0.50;;;-0.10;99.90;;;;;;5093436;28;20197;-77
2022/03/04 02:41:03;;;;;;;0.50;0.40;;;0.00;99.90;;;;;;5092068;28;20272;-77
2022/03/04 02:43:30;;;;;;;0.50;0.50;;;-0.10;99.90;;;;;;5093342;28;20189;-77
2022/03/04 02:45:57;;;;;;;0.50;0.50;;;-0.20;99.90;;;;;;5092858;28;20198;-77
2022/03/04 02:48:24;;;;;;;1.02;1.02;;;-0.20;99.90;;;;;;5093331;28;20248;-76
2022/03/04 02:50:51;;;;;;;0.50;0.50;;;-0.30;99.90;;;;;;5092143;28;20285;-78
2022/03/04 02:53:17;;;;;;;0.50;0.40;;;-0.20;99.90;;;;;;5092461;28;20206;-77
2022/03/04 02:55:44;;;;;;;0.50;0.43;;;-0.20;99.90;;;;;;5092664;28;20195;-77
2022/03/04 02:58:12;;;;;;;0.82;0.82;;;-0.20;99.90;;;;;;5092701;28;20245;-77
2022/03/04 03:00:42;;;;;;;0.50;0.50;;;-0.10;99.90;;;;;;5092454;28;20193;-78
2022/03/04 03:03:09;;;;;;;0.50;0.50;;;-0.10;99.90;;;;;;5092864;28;20193;-78
2022/03/04 03:05:36;;;;;;;1.67;1.58;;;-0.10;99.90;;;;;;5092836;28;20203;-77
2022/03/04 03:08:02;;;;;;;2.78;2.58;;;-0.20;99.90;;;;;;5092829;28;20250;-78
2022/03/04 03:10:31;;;;;;;0.50;0.45;;;-0.10;99.90;;;;;;5091587;28;20274;-77
2022/03/04 03:12:58;;;;;;;0.50;0.40;;;-0.20;99.90;;;;;;5092548;28;20694;-77
2022/03/04 03:15:26;;;;;;;0.50;0.40;;;-0.20;99.90;;;;;;5091132;28;20232;-78
2022/03/04 03:17:53;;;;;;;0.50;0.40;;;-0.20;99.90;;;;;;5092405;28;20197;-77
2022/03/04 03:20:19;;;;;;;0.50;0.40;;;-0.20;99.90;;;;;;5091943;28;20197;-77
2022/03/04 03:22:46;;;;;;;0.50;0.50;;;-0.20;99.90;;;;;;5092445;28;20209;-77
2022/03/04 03:25:13;;;;;;;2.00;1.58;;;-0.20;99.90;;;;;;5092262;28;20257;-77
2022/03/04 03:27:40;;;;;;;0.50;0.40;;;-0.20;99.90;;;;;;5092517;28;20200;-78
2022/03/04 03:30:08;;;;;;;0.50;0.43;;;-0.30;99.90;;;;;;5091480;28;20609;-78
2022/03/04 03:32:36;;;;;;;0.50;0.40;;;-0.30;99.90;;;;;;5092522;28;20221;-76
2022/03/04 03:35:04;;;;;;;0.50;0.40;;;-0.30;99.90;;;;;;5092707;28;20266;-76
2022/03/04 03:37:31;;;;;;;0.50;0.50;;;-0.40;99.90;;;;;;5094021;28;20227;-79
2022/03/04 03:39:58;;;;;;;0.50;0.40;;;-0.40;99.90;;;;;;5094042;28;20197;-79
2022/03/04 03:42:24;;;;;;;0.50;0.40;;;-0.40;99.90;;;;;;5095254;28;20226;-79
2022/03/04 03:44:51;;;;;;;0.50;0.40;;;-0.40;99.90;;;;;;5093932;28;20197;-79
2022/03/04 03:47:18;;;;;;;0.50;0.50;;;-0.50;99.90;;;;;;5094867;28;20197;-79
2022/03/04 03:49:46;;;;;;;3.00;1.92;;;-0.50;99.90;;;;;;5093699;28;20193;-80
2022/03/04 03:52:12;;;;;;;0.50;0.40;;;-0.50;99.90;;;;;;5094826;28;20214;-79
2022/03/04 03:54:39;;;;;;;0.50;0.40;;;-0.50;99.90;;;;;;5093477;28;20263;-77
2022/03/04 03:57:06;;;;;;;0.50;0.40;;;-0.50;99.90;;;;;;5094700;28;20197;-79
2022/03/04 03:59:33;;;;;;;0.50;0.50;;;-0.60;99.90;;;;;;5093713;28;20197;-79
2022/03/04 04:01:59;;;;;;;0.77;0.77;;;-0.60;99.90;;;;;;5094383;28;20213;-80
2022/03/04 04:04:26;;;;;;;2.90;2.80;;;-0.50;99.90;;;;;;5096566;28;20189;-79
2022/03/04 04:06:54;;;;;;;0.50;0.40;;;-0.50;99.90;;;;;;5096222;28;20193;-77
2022/03/04 04:09:21;;;;;;;12.88;9.63;;;-0.50;99.90;;;;;;5095619;28;20208;-79
2022/03/04 04:11:47;;;;;;;0.50;0.43;;;-0.50;99.90;;;;;;5096012;28;20228;-79
2022/03/04 04:14:14;;;;;;;0.50;0.50;;;-0.60;99.90;;;;;;5093600;28;20217;-80
2022/03/04 04:16:41;;;;;;;0.50;0.50;;;-0.60;99.90;;;;;;5095048;28;20193;-79
2022/03/04 04:19:08;;;;;;;0.50;0.40;;;-0.60;99.90;;;;;;5092674;28;20201;-78
2022/03/04 04:21:35;;;;;;;0.80;0.80;;;-0.60;99.90;;;;;;5094127;28;20217;-78
2022/03/04 04:24:03;;;;;;;0.50;0.40;;;-0.70;99.90;;;;;;5093956;28;20296;-76
2022/03/04 04:26:31;;;;;;;0.50;0.40;;;-0.70;99.90;;;;;;5092091;28;20242;-77
2022/03/04 04:28:58;;;;;;;0.50;0.47;;;-0.70;99.90;;;;;;5090562;28;20216;-75
2022/03/04 04:31:24;;;;;;;0.77;0.77;;;-0.70;99.90;;;;;;5091345;28;20222;-77
2022/03/04 04:33:52;;;;;;;0.50;0.50;;;-0.70;99.90;;;;;;5091846;28;20205;-76
2022/03/04 04:36:19;;;;;;;0.70;0.70;;;-0.70;99.90;;;;;;5091402;28;20193;-80
2022/03/04 04:38:46;;;;;;;0.50;0.50;;;-0.60;99.90;;;;;;5091484;28;20193;-75
2022/03/04 04:41:14;;;;;;;0.75;0.75;;;-0.70;99.90;;;;;;5091414;28;20214;-75
2022/03/04 04:43:40;;;;;;;0.50;0.50;;;-0.60;99.90;;;;;;5091746;28;20190;-76
2022/03/04 04:46:07;;;;;;;0.50;0.40;;;-0.60;99.90;;;;;;5091153;28;20712;-76
2022/03/04 04:48:34;;;;;;;0.50;0.50;;;-0.60;99.90;;;;;;5091576;28;20204;-76
2022/03/04 04:51:01;;;;;;;0.50;0.50;;;-0.60;99.90;;;;;;5090393;28;20354;-77
2022/03/04 04:53:28;;;;;;;0.50;0.50;;;-0.70;99.90;;;;;;5091949;28;20551;-77
2022/03/04 04:55:55;;;;;;;0.50;0.40;;;-0.70;99.90;;;;;;5091300;28;20277;-76
2022/03/04 04:58:23;;;;;;;0.50;0.40;;;-0.70;99.90;;;;;;5091820;28;20251;-77
2022/03/04 05:00:53;;;;;;;0.50;0.40;;;-0.70;99.90;;;;;;5090542;28;20193;-77
2022/03/04 05:03:20;;;;;;;0.50;0.50;;;-0.70;99.90;;;;;;5091487;28;20691;-77
2022/03/04 05:05:47;;;;;;;0.50;0.40;;;-0.80;99.90;;;;;;5091255;28;20193;-77
2022/03/04 05:08:14;;;;;;;2.10;1.95;;;-0.80;99.90;;;;;;5091350;28;20547;-76
2022/03/04 05:10:40;;;;;;;0.50;0.40;;;-0.70;99.90;;;;;;5090363;28;20259;-76
2022/03/04 05:13:07;;;;;;;0.50;0.40;;;-0.80;99.90;;;;;;5090978;28;20207;-77
2022/03/04 05:15:35;;;;;;;0.50;0.50;;;-0.80;99.90;;;;;;5089696;28;20197;-77
2022/03/04 05:18:02;;;;;;;0.50;0.40;;;-0.80;99.90;;;;;;5092920;28;20197;-76
2022/03/04 05:20:29;;;;;;;0.50;0.40;;;-0.80;99.90;;;;;;5093959;28;20197;-77
2022/03/04 05:22:56;;;;;;;0.50;0.50;;;-0.80;99.90;;;;;;5094467;28;20217;-76
2022/03/04 05:25:23;;;;;;;0.50;0.45;;;-0.80;99.90;;;;;;5094786;28;20193;-76
2022/03/04 05:27:50;;;;;;;0.50;0.40;;;-0.90;99.90;;;;;;5094805;28;20195;-77
2022/03/04 05:30:17;;;;;;;0.50;0.40;;;-0.80;99.90;;;;;;5093517;28;20654;-77
2022/03/04 05:32:45;;;;;;;0.50;0.50;;;-0.80;99.90;;;;;;5094119;28;20220;-75
2022/03/04 05:35:11;;;;;;;0.50;0.40;;;-0.80;99.90;;;;;;5094358;28;20682;-76
2022/03/04 05:37:38;;;;;;;0.50;0.50;;;-0.90;99.90;;;;;;5094543;28;20200;-76
2022/03/04 05:40:06;;;;;;;0.50;0.50;;;-0.90;99.90;;;;;;5094128;28;20675;-76
2022/03/04 05:42:33;;;;;;;2.88;2.45;;;-0.90;99.90;;;;;;5094080;28;20620;-76
2022/03/04 05:45:00;;;;;;;1.58;1.48;;;-0.90;99.90;;;;;;5094449;28;20250;-77
2022/03/04 05:47:27;;;;;;;0.50;0.40;;;-0.90;99.90;;;;;;5094162;28;20732;-77
2022/03/04 05:49:55;;;;;;;0.50;0.50;;;-0.90;99.90;;;;;;5093759;28;20193;-75
2022/03/04 05:52:21;;;;;;;0.60;0.60;;;-1.00;99.90;;;;;;5094144;28;20216;-76
2022/03/04 05:54:48;;;;;;;0.50;0.50;;;-1.00;99.90;;;;;;5094198;28;20220;-75
2022/03/04 05:57:15;;;;;;;0.60;0.60;;;-1.00;99.90;;;;;;5094140;28;20240;-76
2022/03/04 05:59:41;;;;;;;1.55;1.45;;;-1.10;99.90;;;;;;5093252;28;20197;-77
2022/03/04 06:02:08;;;;;;;1.13;1.13;;;-1.20;99.90;;;;;;5094419;28;20213;-77
2022/03/04 06:04:35;;;;;;;0.50;0.40;;;-1.20;99.90;;;;;;5086426;28;20675;-77
2022/03/04 06:07:03;;;;;;;0.50;0.50;;;-1.20;99.90;;;;;;5088802;28;20205;-78
2022/03/04 06:09:31;;;;;;;0.50;0.40;;;-1.20;99.90;;;;;;5092965;28;20201;-77
2022/03/04 06:11:57;;;;;;;4.07;3.83;;;-1.10;99.90;;;;;;5093298;28;20210;-76
2022/03/04 06:14:24;;;;;;;0.50;0.40;;;-1.20;99.90;;;;;;5091723;28;20212;-76
2022/03/04 06:16:51;;;;;;;0.50;0.50;;;-1.20;99.90;;;;;;5093955;28;20220;-74
2022/03/04 06:19:17;;;;;;;1.27;1.17;;;-1.20;99.90;;;;;;5093111;28;20197;-76
2022/03/04 06:21:44;;;;;;;1.80;1.70;;;-1.10;99.90;;;;;;5093684;28;20601;-73
2022/03/04 06:24:12;;;;;;;0.93;0.93;;;-1.10;99.90;;;;;;5093497;28;20243;-76
2022/03/04 06:26:39;;;;;;;0.50;0.40;;;-1.00;99.90;;;;;;5093382;28;20194;-76
2022/03/04 06:29:05;;;;;;;0.50;0.40;;;-1.00;99.90;;;;;;5092731;28;20209;-76
2022/03/04 06:31:32;;;;;;;0.50;0.40;;;-0.90;99.90;;;;;;5083710;28;20304;-76
2022/03/04 06:33:59;;;;;;;0.50;0.40;;;-1.00;99.90;;;;;;5088549;28;20539;-76
2022/03/04 06:36:25;;;;;;;0.50;0.50;;;-1.00;99.90;;;;;;5093874;28;20300;-75
2022/03/04 06:38:52;;;;;;;0.98;0.98;;;-0.90;99.90;;;;;;5092335;28;20296;-75
2022/03/04 06:41:20;;;;;;;0.50;0.50;;;-0.90;99.90;;;;;;5092596;28;20221;-75
2022/03/04 06:43:48;;;;;;;0.50;0.40;;;-0.80;99.90;;;;;;5093265;28;20285;-74
2022/03/04 06:46:16;;;;;;;0.60;0.40;;;-0.80;99.90;;;;;;5092684;28;20193;-75
2022/03/04 06:48:43;;;;;;;4.18;3.95;;;-0.60;99.90;;;;;;5094213;28;20197;-76
2022/03/04 06:51:10;;;;;;;0.50;0.40;;;-0.40;99.90;;;;;;5089845;28;20224;-77
2022/03/04 06:53:36;;;;;;;0.50;0.50;;;-0.20;99.90;;;;;;5082813;28;20563;-78
2022/03/04 06:56:03;;;;;;;0.50;0.50;;;-0.10;99.90;;;;;;5092598;28;20548;-77
2022/03/04 06:58:31;;;;;;;2.15;2.05;;;0.10;99.90;;;;;;5092816;28;20201;-77
2022/03/04 07:00:58;;;;;;;0.90;0.82;;;0.30;99.90;;;;;;5091349;28;20731;-77
2022/03/04 07:03:24;;;;;;;0.60;0.57;;;0.60;99.90;;;;;;5092598;28;20190;-76
2022/03/04 07:05:51;;;;;;;4.93;3.90;;;0.70;99.90;;;;;;5091840;28;20192;-77
2022/03/04 07:08:18;;;;;;;1.02;1.02;;;0.90;99.90;;;;;;5092486;28;20201;-77
2022/03/04 07:10:45;;;;;;;0.50;0.50;;;1.00;99.90;;;;;;5092248;28;20628;-76
2022/03/04 07:13:12;;;;;;;0.50;0.40;;;1.10;99.90;;;;;;5092377;28;20244;-78
2022/03/04 07:15:41;;;;;;;1.33;0.85;;;1.10;99.90;;;;;;5085365;28;20251;-75
2022/03/04 07:18:08;;;;;;;0.75;0.75;;;1.20;99.90;;;;;;5083209;28;20194;-77
2022/03/04 07:20:34;;;;;;;0.80;0.80;;;1.30;99.90;;;;;;5091144;28;20204;-78
2022/03/04 07:23:01;;;;;;;0.60;0.50;;;1.40;99.90;;;;;;5092191;28;20571;-77
2022/03/04 07:25:28;;;;;;;1.63;1.38;;;1.60;99.90;;;;;;5092544;28;20597;-77
2022/03/04 07:27:55;;;;;;;0.50;0.50;;;1.60;99.90;;;;;;5091501;28;20206;-78
2022/03/04 07:30:21;;;;;;;1.05;1.05;;;1.60;99.90;;;;;;5091086;28;20655;-78
2022/03/04 07:32:49;;;;;;;0.50;0.50;;;1.70;99.90;;;;;;5091982;28;20264;-77
2022/03/04 07:35:16;;;;;;;1.38;1.35;;;1.70;99.90;;;;;;5091820;28;20227;-77
2022/03/04 07:37:43;;;;;;;0.50;0.50;;;1.80;99.90;;;;;;5092149;28;20544;-76
2022/03/04 07:40:13;;;;;;;0.73;0.73;;;1.90;99.90;;;;;;5091188;28;20255;-77
2022/03/04 07:42:40;;;;;;;3.42;2.78;;;2.20;99.90;;;;;;5091642;28;20238;-78
2022/03/04 07:45:08;;;;;;;1.40;1.38;;;2.70;99.90;;;;;;5091992;28;20200;-77
2022/03/04 07:47:35;;;;;;;0.50;0.50;;;3.40;99.90;;;;;;5091819;28;20197;-77
2022/03/04 07:50:04;;;;;;;0.50;0.50;;;4.30;99.90;;;;;;5090804;28;20246;-77
2022/03/04 07:52:31;;;;;;;3.05;2.85;;;5.20;99.90;;;;;;5091525;28;20213;-79
2022/03/04 07:54:59;;;;;;;1.55;1.33;;;5.90;99.90;;;;;;5091697;28;20228;-77
2022/03/04 07:57:25;;;;;;;0.50;0.40;;;6.30;99.90;;;;;;5091504;28;20296;-78
2022/03/04 07:59:52;;;;;;;1.42;1.33;;;6.60;99.90;;;;;;5090798;28;20193;-77
2022/03/04 08:02:19;;;;;;;0.70;0.70;;;7.20;99.90;;;;;;5091427;28;20278;-77
2022/03/04 08:04:46;;;;;;;4.45;4.10;;;7.70;99.90;;;;;;5091450;28;20227;-78
2022/03/04 08:07:14;;;;;;;2.05;1.95;;;8.10;99.90;;;;;;5091000;28;20654;-77
2022/03/04 08:09:41;;;;;;;2.10;1.92;;;8.10;99.90;;;;;;5091158;28;20571;-77
2022/03/04 08:12:09;;;;;;;2.65;2.55;;;8.10;99.90;;;;;;5091164;28;20290;-78
2022/03/04 08:14:35;;;;;;;0.50;0.40;;;8.30;99.90;;;;;;5089363;28;20224;-77
2022/03/04 08:17:02;;;;;;;0.50;0.50;;;8.30;99.90;;;;;;5091944;28;20692;-77
2022/03/04 08:19:29;;;;;;;0.60;0.40;;;9.00;99.90;;;;;;5090560;28;20208;-78
2022/03/04 08:21:56;;;;;;;6.82;2.55;;;10.40;99.90;;;;;;5091139;28;20217;-77
2022/03/04 08:24:24;;;;;;;0.50;0.40;;;11.70;92.30;;;;;;5091386;28;20198;-79
2022/03/04 08:26:51;;;;;;;1.45;1.15;;;12.90;84.40;;;;;;5091307;28;20758;-71
2022/03/04 08:29:18;;;;;;;0.50;0.40;;;14.60;77.20;;;;;;5090311;28;20197;-75
2022/03/04 08:31:45;;;;;;;1.50;1.40;;;16.10;69.20;;;;;;5091452;28;20286;-71
2022/03/04 08:34:11;;;;;;;0.60;0.50;;;17.60;62.30;;;;;;5091713;28;20851;-75
2022/03/04 08:36:38;;;;;;;1.73;1.63;;;18.40;56.20;;;;;;5091464;28;20813;-76
2022/03/04 08:39:05;;;;;;;0.60;0.50;;;19.20;54.30;;;;;;5090340;28;20460;-75
2022/03/04 08:41:34;;;;;;;0.77;0.77;;;18.70;51.00;;;;;;5091055;28;20557;-75
2022/03/04 08:44:01;;;;;;;2.00;1.23;;;19.00;53.20;;;;;;5090644;28;20949;-75
2022/03/04 08:46:27;;;;;;;0.50;0.40;;;20.30;52.00;;;;;;5091474;28;20431;-75
2022/03/04 08:48:54;;;;;;;0.50;0.40;;;20.60;48.70;;;;;;5090493;28;20497;-73
2022/03/04 08:51:24;;;;;;;1.03;1.03;;;20.80;48.50;;;;;;5090722;28;20458;-76
2022/03/04 08:53:51;;;;;;;0.50;0.40;;;21.40;47.90;;;;;;5094135;28;20442;-75
2022/03/04 08:56:18;;;;;;;0.53;0.47;;;20.90;45.40;;;;;;5094931;28;20478;-78
2022/03/04 08:58:46;;;;;;;12.40;1.90;;;20.80;45.60;;;;;;5094850;28;20439;-74
2022/03/04 09:01:13;;;;;;;1.20;1.20;;;20.60;45.70;;;;;;5094274;28;20929;-77
2022/03/04 09:03:40;;;;;;;0.60;0.40;;;20.90;46.80;;;;;;5088840;28;20524;-76
2022/03/04 09:06:07;;;;;;;1.60;1.50;;;21.80;46.90;;;;;;5094908;28;20435;-78
2022/03/04 09:08:33;;;;;;;0.50;0.30;;;22.40;46.40;;;;;;5095112;28;20978;-77
2022/03/04 09:11:00;;;;;;;2.23;0.53;;;22.90;43.20;;;;;;5093859;28;20450;-77
2022/03/04 09:13:27;;;;;;;3.17;0.87;;;22.60;42.50;;;;;;5094656;28;20438;-78
2022/03/04 09:15:55;;;;;;;0.50;0.40;;;22.20;42.60;;;;;;5092761;28;20486;-75
2022/03/04 09:18:21;;;;;;;0.80;0.80;;;21.30;43.50;;;;;;5094914;28;20435;-76
2022/03/04 09:20:48;;;;;;;0.50;0.30;;;21.80;44.20;;;;;;5093398;28;20451;-76
2022/03/04 09:23:15;;;;;;;0.50;0.50;;;21.80;43.00;;;;;;5094787;28;20443;-76
2022/03/04 09:25:41;;;;;;;0.50;0.40;;;21.70;42.40;;;;;;5094596;28;20483;-75
2022/03/04 09:28:08;;;;;;;0.50;0.30;;;21.60;43.60;;;;;;5094352;28;20435;-76
2022/03/04 09:30:36;;;;;;;0.70;0.70;;;22.30;44.00;;;;;;5092329;28;20443;-76
2022/03/04 09:33:04;;;;;;;0.97;0.80;;;23.10;43.70;;;;;;5093766;28;20465;-76
2022/03/04 09:35:31;;;;;;;1.07;1.07;;;23.30;41.90;;;;;;5085678;28;20538;-76
2022/03/04 09:37:58;;;;;;;0.50;0.40;;;23.20;41.40;;;;;;5088636;28;20435;-76
2022/03/04 09:40:26;;;;;;;0.50;0.40;;;23.90;41.60;;;;;;5093233;28;20489;-76
2022/03/04 09:42:54;;;;;;;1.33;0.63;;;24.00;41.00;;;;;;5094380;28;20463;-74
2022/03/04 09:45:21;;;;;;;0.50;0.30;;;24.50;41.10;;;;;;5088430;28;20512;-75
2022/03/04 09:47:47;;;;;;;0.60;0.40;;;24.90;40.30;;;;;;5085742;28;20451;-75
2022/03/04 09:50:17;;;;;;;0.50;0.30;;;24.70;40.40;;;;;;5092939;28;20492;-76
2022/03/04 09:52:46;;;;;;;0.50;0.30;;;25.20;40.80;;;;;;5093634;28;21056;-77
2022/03/04 09:55:12;;;;;;;0.60;0.40;;;25.40;39.20;;;;;;5093386;28;20467;-76
2022/03/04 09:57:40;;;;;;;0.50;0.30;;;25.20;39.40;;;;;;5093826;28;20512;-76
2022/03/04 10:00:11;;;;;;;4.00;0.83;;;24.50;39.10;;;;;;5092304;28;20526;-77
2022/03/04 10:02:38;;;;;;;0.50;0.30;;;24.70;39.70;;;;;;5093381;28;20462;-77
2022/03/04 10:05:05;;;;;;;1.27;1.17;;;24.30;38.90;;;;;;5093744;28;20435;-77
2022/03/04 10:07:41;;;;;;;1.47;0.97;;;23.80;38.80;;;;;;5093222;28;20439;-76
2022/03/04 10:10:12;;;;;;;4.83;1.23;;;23.30;39.40;;;;;;5092656;28;20447;-76
2022/03/04 10:12:47;;;;;;;0.50;0.30;;;23.40;40.30;;;;;;5093020;28;20525;-76
2022/03/04 10:15:14;;;;;;;0.50;0.40;;;23.00;39.30;;;;;;5092407;28;20553;-76
2022/03/04 10:17:41;;;;;;;0.80;0.70;;;22.50;39.30;;;;;;5093406;28;20435;-76
2022/03/04 10:20:12;;;;;;;1.53;1.43;;;21.20;39.70;;;;;;5092571;28;20431;-76
2022/03/04 10:22:43;;;;;;;0.50;0.33;;;21.00;42.00;;;;;;5093085;28;20544;-76
2022/03/04 10:25:17;;;;;;;0.53;0.47;;;20.80;42.70;;;;;;5092749;28;20462;-76
2022/03/04 10:27:45;;;;;;;0.50;0.40;;;20.40;41.80;;;;;;5093275;28;20488;-77
2022/03/04 10:30:12;;;;;;;0.50;0.40;;;20.30;42.10;;;;;;5092474;28;20455;-78
2022/03/04 10:32:39;;;;;;;0.50;0.40;;;21.00;41.50;;;;;;5092679;28;20451;-76
2022/03/04 10:35:08;;;;;;;0.50;0.30;;;20.90;41.30;;;;;;5092845;28;20467;-77
2022/03/04 10:37:44;;;;;;;0.63;0.63;;;21.60;41.10;;;;;;5093033;28;20766;-76
2022/03/04 10:40:15;;;;;;;0.50;0.40;;;22.20;41.00;;;;;;5092347;28;20439;-76
2022/03/04 10:42:51;;;;;;;0.50;0.40;;;22.60;40.20;;;;;;5092836;28;20520;-77
2022/03/04 10:45:20;;;;;;;0.50;0.40;;;23.20;40.10;;;;;;5092967;28;20418;-77
2022/03/04 10:47:50;;;;;;;0.50;0.50;;;23.80;40.90;;;;;;5092886;28;20496;-76
2022/03/04 10:50:19;;;;;;;0.50;0.30;;;24.90;38.90;;;;;;5092565;28;20443;-77
2022/03/04 10:52:57;;;;;;;0.50;0.37;;;25.00;37.50;;;;;;5092416;28;21011;-77
2022/03/04 10:55:32;;;;;;;0.50;0.30;;;24.60;37.70;;;;;;5092897;28;20498;-77
2022/03/04 10:58:00;;;;;;;1.43;1.33;;;24.20;39.50;;;;;;5092722;28;20492;-77
2022/03/04 11:00:29;;;;;;;2.67;1.47;;;24.50;37.80;;;;;;5091849;28;20450;-77
2022/03/04 11:02:56;;;;;;;1.07;0.97;;;24.00;37.20;;;;;;5092107;28;20466;-76
2022/03/04 11:05:24;;;;;;;0.83;0.83;;;24.00;38.90;;;;;;5092568;28;20435;-77
2022/03/04 11:07:52;;;;;;;0.50;0.30;;;24.90;39.20;;;;;;5092216;28;21060;-77
2022/03/04 11:10:20;;;;;;;0.60;0.50;;;25.10;37.10;;;;;;5091557;28;20451;-77
2022/03/04 11:12:50;;;;;;;0.83;0.57;;;25.40;36.40;;;;;;5092147;28;20512;-73
2022/03/04 11:15:17;;;;;;;0.50;0.30;;;24.40;36.70;;;;;;5090047;28;20502;-77
2022/03/04 11:17:45;;;;;;;0.50;0.40;;;24.00;36.60;;;;;;5092203;28;20518;-76
2022/03/04 11:20:12;;;;;;;2.53;2.33;;;24.40;37.40;;;;;;5091173;28;20458;-77
2022/03/04 11:22:40;;;;;;;0.60;0.57;;;23.30;36.20;;;;;;5092178;28;20455;-77
2022/03/04 11:25:12;;;;;;;0.93;0.93;;;22.90;38.30;;;;;;5091885;28;20481;-77
2022/03/04 11:27:43;;;;;;;0.50;0.40;;;23.10;38.60;;;;;;5092130;28;20422;-77
2022/03/04 11:30:32;;;;;;;0.50;0.30;;;23.50;37.80;;;;;;5090532;28;20947;-77
2022/03/04 11:33:18;;;;;;;0.50;0.30;;;24.40;39.40;;;;;;5091772;28;20455;-78
2022/03/04 11:36:08;;;;;;;0.50;0.30;;;24.20;37.20;;;;;;5091968;28;20455;-77
2022/03/04 11:38:58;;;;;;;0.70;0.70;;;23.70;36.90;;;;;;5092538;28;20729;-76
2022/03/04 11:41:34;;;;;;;0.50;0.50;;;23.30;37.80;;;;;;5091294;28;20461;-77
2022/03/04 11:44:09;;;;;;;1.00;0.90;;;23.60;38.90;;;;;;5091725;28;20426;-77
2022/03/04 11:46:44;;;;;;;0.50;0.30;;;24.10;36.90;;;;;;5091724;28;20423;-78
2022/03/04 11:49:29;;;;;;;0.73;0.73;;;24.90;37.10;;;;;;5091346;28;20419;-77
2022/03/04 11:52:19;;;;;;;1.07;0.70;;;25.10;36.20;;;;;;5091555;28;20459;-77
2022/03/04 11:55:27;;;;;;;0.50;0.40;;;24.50;35.10;;;;;;5091467;28;20423;-77
2022/03/04 11:58:03;;;;;;;0.50;0.40;;;24.60;35.30;;;;;;5091834;28;20847;-76
2022/03/04 12:00:34;;;;;;;21.63;2.60;;;24.70;37.10;;;;;;5091235;28;20959;-77
2022/03/04 12:03:14;;;;;;;0.60;0.53;;;24.70;36.00;;;;;;5091771;28;20467;-77
2022/03/04 12:05:47;;;;;;;1.90;1.33;;;24.20;34.80;;;;;;5091293;28;20881;-77
2022/03/04 12:08:14;;;;;;;0.50;0.30;;;23.40;36.00;;;;;;5091618;28;20489;-77
2022/03/04 12:10:50;;;;;;;0.50;0.30;;;23.90;37.80;;;;;;5090553;28;21051;-77
2022/03/04 12:13:20;;;;;;;0.80;0.47;;;23.70;36.50;;;;;;5091062;28;20431;-78
2022/03/04 12:15:52;;;;;;;0.50;0.30;;;24.60;37.40;;;;;;5090096;28;20520;-77
2022/03/04 12:18:26;;;;;;;1.77;1.67;;;24.80;36.40;;;;;;5091424;28;20813;-75
2022/03/04 12:21:10;;;;;;;0.50;0.50;;;25.40;36.40;;;;;;5090685;28;20424;-75
2022/03/04 12:23:39;;;;;;;0.50;0.50;;;25.20;34.90;;;;;;5091554;28;20433;-77
2022/03/04 12:26:11;;;;;;;3.90;3.70;;;25.10;35.60;;;;;;5091487;28;20441;-77
2022/03/04 12:28:43;;;;;;;0.50;0.30;;;25.10;35.30;;;;;;5095227;28;20443;-77
2022/03/04 12:31:18;;;;;;;1.57;1.47;;;24.80;34.90;;;;;;5095085;28;20535;-77
2022/03/04 12:33:47;;;;;;;0.50;0.30;;;25.00;35.40;;;;;;5095218;28;20920;-77
2022/03/04 12:36:15;;;;;;;0.50;0.30;;;25.10;34.60;;;;;;5094929;28;20847;-77
2022/03/04 12:38:44;;;;;;;0.50;0.40;;;25.10;34.70;;;;;;5095128;28;20500;-77
2022/03/04 12:41:15;;;;;;;0.60;0.53;;;25.00;35.00;;;;;;5094459;28;20455;-78
2022/03/04 12:43:45;;;;;;;0.70;0.70;;;24.90;35.50;;;;;;5095588;28;20447;-77
2022/03/04 12:46:11;;;;;;;1.70;1.63;;;25.20;35.40;;;;;;5095405;28;20791;-77
2022/03/04 12:48:39;;;;;;;0.50;0.30;;;24.60;35.70;;;;;;5095459;28;20458;-77
2022/03/04 12:51:20;;;;;;;0.70;0.50;;;24.20;35.20;;;;;;5094331;28;20455;-77
2022/03/04 12:53:47;;;;;;;1.47;1.37;;;24.10;35.20;;;;;;5094634;28;20427;-77
2022/03/04 12:56:13;;;;;;;1.43;1.33;;;23.80;35.10;;;;;;5094878;28;20467;-76